sensor_id;sensor_type;location;lat;lon;timestamp;P1;durP1;ratioP1;P2;durP2;ratioP2
75639;SDS011;64233;51.486;6.332;2023-09-19T00:01:45;12.10;;;1.83;;
75639;SDS011;64233;51.486;6.332;2023-09-19T00:04:11;7.97;;;2.03;;
75639;SDS011;64233;51.486;6.332;2023-09-19T00:06:37;6.68;;;1.83;;
75639;SDS011;64233;51.486;6.332;2023-09-19T00:09:03;6.57;;;1.55;;
75639;SDS011;64233;51.486;6.332;2023-09-19T00:11:29;8.13;;;1.40;;
75639;SDS011;64233;51.486;6.332;2023-09-19T00:13:55;7.85;;;1.33;;
75639;SDS011;64233;51.486;6.332;2023-09-19T00:16:24;7.93;;;1.40;;
75639;SDS011;64233;51.486;6.332;2023-09-19T00:18:50;7.13;;;0.85;;
75639;SDS011;64233;51.486;6.332;2023-09-19T00:21:15;6.95;;;1.50;;
75639;SDS011;64233;51.486;6.332;2023-09-19T00:23:40;6.22;;;1.50;;
75639;SDS011;64233;51.486;6.332;2023-09-19T00:26:08;2.83;;;2.22;;
75639;SDS011;64233;51.486;6.332;2023-09-19T00:28:34;3.38;;;1.00;;
75639;SDS011;64233;51.486;6.332;2023-09-19T00:31:00;4.93;;;1.70;;
75639;SDS011;64233;51.486;6.332;2023-09-19T00:33:26;8.88;;;1.67;;
75639;SDS011;64233;51.486;6.332;2023-09-19T00:35:54;5.22;;;1.25;;
75639;SDS011;64233;51.486;6.332;2023-09-19T00:38:22;3.90;;;1.40;;
75639;SDS011;64233;51.486;6.332;2023-09-19T00:40:52;5.68;;;1.83;;
75639;SDS011;64233;51.486;6.332;2023-09-19T00:43:18;7.47;;;1.45;;
75639;SDS011;64233;51.486;6.332;2023-09-19T00:45:49;5.68;;;1.63;;
75639;SDS011;64233;51.486;6.332;2023-09-19T00:48:16;9.60;;;1.92;;
75639;SDS011;64233;51.486;6.332;2023-09-19T00:50:42;5.65;;;1.52;;
75639;SDS011;64233;51.486;6.332;2023-09-19T00:53:09;4.68;;;1.45;;
75639;SDS011;64233;51.486;6.332;2023-09-19T00:55:38;6.38;;;1.33;;
75639;SDS011;64233;51.486;6.332;2023-09-19T00:58:05;8.90;;;1.42;;
75639;SDS011;64233;51.486;6.332;2023-09-19T01:00:31;5.65;;;1.33;;
75639;SDS011;64233;51.486;6.332;2023-09-19T01:02:59;4.90;;;1.40;;
75639;SDS011;64233;51.486;6.332;2023-09-19T01:05:26;10.85;;;1.80;;
75639;SDS011;64233;51.486;6.332;2023-09-19T01:07:51;3.63;;;1.27;;
75639;SDS011;64233;51.486;6.332;2023-09-19T01:10:18;6.28;;;1.30;;
75639;SDS011;64233;51.486;6.332;2023-09-19T01:12:52;8.30;;;2.40;;
75639;SDS011;64233;51.486;6.332;2023-09-19T01:20:53;8.82;;;2.78;;
75639;SDS011;64233;51.486;6.332;2023-09-19T01:26:04;9.07;;;1.52;;
75639;SDS011;64233;51.486;6.332;2023-09-19T01:31:12;8.32;;;1.27;;
75639;SDS011;64233;51.486;6.332;2023-09-19T01:36:24;4.03;;;1.33;;
75639;SDS011;64233;51.486;6.332;2023-09-19T01:38:54;4.30;;;1.48;;
75639;SDS011;64233;51.486;6.332;2023-09-19T01:41:31;6.57;;;1.20;;
75639;SDS011;64233;51.486;6.332;2023-09-19T01:44:06;7.95;;;1.50;;
75639;SDS011;64233;51.486;6.332;2023-09-19T01:46:39;14.73;;;2.08;;
75639;SDS011;64233;51.486;6.332;2023-09-19T01:49:12;10.20;;;1.27;;
75639;SDS011;64233;51.486;6.332;2023-09-19T01:54:26;5.83;;;2.13;;
75639;SDS011;64233;51.486;6.332;2023-09-19T01:59:33;7.15;;;1.33;;
75639;SDS011;64233;51.486;6.332;2023-09-19T02:02:12;4.47;;;1.65;;
75639;SDS011;64233;51.486;6.332;2023-09-19T02:04:39;10.93;;;1.70;;
75639;SDS011;64233;51.486;6.332;2023-09-19T02:07:05;5.00;;;1.60;;
75639;SDS011;64233;51.486;6.332;2023-09-19T02:09:31;7.10;;;1.35;;
75639;SDS011;64233;51.486;6.332;2023-09-19T02:11:56;6.35;;;1.30;;
75639;SDS011;64233;51.486;6.332;2023-09-19T02:14:21;6.60;;;1.52;;
75639;SDS011;64233;51.486;6.332;2023-09-19T02:16:47;4.18;;;1.27;;
75639;SDS011;64233;51.486;6.332;2023-09-19T02:19:13;8.85;;;1.70;;
75639;SDS011;64233;51.486;6.332;2023-09-19T02:21:38;5.80;;;1.10;;
75639;SDS011;64233;51.486;6.332;2023-09-19T02:24:05;5.82;;;1.13;;
75639;SDS011;64233;51.486;6.332;2023-09-19T02:26:33;3.95;;;1.40;;
75639;SDS011;64233;51.486;6.332;2023-09-19T02:29:01;6.00;;;1.08;;
75639;SDS011;64233;51.486;6.332;2023-09-19T02:31:29;4.80;;;1.60;;
75639;SDS011;64233;51.486;6.332;2023-09-19T02:33:55;6.75;;;1.25;;
75639;SDS011;64233;51.486;6.332;2023-09-19T02:36:21;7.32;;;1.10;;
75639;SDS011;64233;51.486;6.332;2023-09-19T02:38:48;5.90;;;1.42;;
75639;SDS011;64233;51.486;6.332;2023-09-19T02:41:14;10.25;;;1.67;;
75639;SDS011;64233;51.486;6.332;2023-09-19T02:43:39;3.67;;;1.23;;
75639;SDS011;64233;51.486;6.332;2023-09-19T02:46:04;4.28;;;1.33;;
75639;SDS011;64233;51.486;6.332;2023-09-19T02:48:30;6.82;;;1.27;;
75639;SDS011;64233;51.486;6.332;2023-09-19T02:50:57;5.55;;;1.13;;
75639;SDS011;64233;51.486;6.332;2023-09-19T02:53:22;6.45;;;1.00;;
75639;SDS011;64233;51.486;6.332;2023-09-19T02:55:49;3.88;;;1.00;;
75639;SDS011;64233;51.486;6.332;2023-09-19T02:58:14;10.15;;;1.55;;
75639;SDS011;64233;51.486;6.332;2023-09-19T03:00:40;4.78;;;1.38;;
75639;SDS011;64233;51.486;6.332;2023-09-19T03:03:12;8.27;;;1.60;;
75639;SDS011;64233;51.486;6.332;2023-09-19T03:05:38;3.55;;;1.13;;
75639;SDS011;64233;51.486;6.332;2023-09-19T03:08:03;8.90;;;1.45;;
75639;SDS011;64233;51.486;6.332;2023-09-19T03:10:29;5.18;;;1.58;;
75639;SDS011;64233;51.486;6.332;2023-09-19T03:12:56;7.82;;;1.08;;
75639;SDS011;64233;51.486;6.332;2023-09-19T03:15:22;9.85;;;1.30;;
75639;SDS011;64233;51.486;6.332;2023-09-19T03:17:48;4.07;;;1.50;;
75639;SDS011;64233;51.486;6.332;2023-09-19T03:20:14;5.60;;;1.33;;
75639;SDS011;64233;51.486;6.332;2023-09-19T03:22:42;5.93;;;1.80;;
75639;SDS011;64233;51.486;6.332;2023-09-19T03:25:08;3.15;;;1.10;;
75639;SDS011;64233;51.486;6.332;2023-09-19T03:27:36;7.22;;;1.52;;
75639;SDS011;64233;51.486;6.332;2023-09-19T03:30:03;6.85;;;1.40;;
75639;SDS011;64233;51.486;6.332;2023-09-19T03:32:36;6.07;;;1.30;;
75639;SDS011;64233;51.486;6.332;2023-09-19T03:35:02;3.75;;;1.23;;
75639;SDS011;64233;51.486;6.332;2023-09-19T03:37:30;3.72;;;1.15;;
75639;SDS011;64233;51.486;6.332;2023-09-19T03:39:56;6.03;;;1.33;;
75639;SDS011;64233;51.486;6.332;2023-09-19T03:42:22;11.38;;;1.33;;
75639;SDS011;64233;51.486;6.332;2023-09-19T03:44:50;3.45;;;1.05;;
75639;SDS011;64233;51.486;6.332;2023-09-19T03:47:17;5.90;;;1.13;;
75639;SDS011;64233;51.486;6.332;2023-09-19T03:49:43;7.22;;;1.60;;
75639;SDS011;64233;51.486;6.332;2023-09-19T03:52:08;4.40;;;1.15;;
75639;SDS011;64233;51.486;6.332;2023-09-19T03:54:33;8.30;;;1.33;;
75639;SDS011;64233;51.486;6.332;2023-09-19T03:56:58;5.53;;;1.30;;
75639;SDS011;64233;51.486;6.332;2023-09-19T03:59:23;8.97;;;1.43;;
75639;SDS011;64233;51.486;6.332;2023-09-19T04:01:49;6.68;;;1.33;;
75639;SDS011;64233;51.486;6.332;2023-09-19T04:04:15;7.78;;;1.50;;
75639;SDS011;64233;51.486;6.332;2023-09-19T04:06:40;9.57;;;1.20;;
75639;SDS011;64233;51.486;6.332;2023-09-19T04:09:05;7.43;;;2.15;;
75639;SDS011;64233;51.486;6.332;2023-09-19T04:11:32;4.82;;;1.20;;
75639;SDS011;64233;51.486;6.332;2023-09-19T04:13:58;7.15;;;1.25;;
75639;SDS011;64233;51.486;6.332;2023-09-19T04:16:24;3.10;;;0.80;;
75639;SDS011;64233;51.486;6.332;2023-09-19T04:18:49;7.25;;;1.38;;
75639;SDS011;64233;51.486;6.332;2023-09-19T04:21:14;5.80;;;1.08;;
75639;SDS011;64233;51.486;6.332;2023-09-19T04:23:40;11.00;;;1.60;;
75639;SDS011;64233;51.486;6.332;2023-09-19T04:26:05;7.50;;;1.88;;
75639;SDS011;64233;51.486;6.332;2023-09-19T04:28:31;9.27;;;1.20;;
75639;SDS011;64233;51.486;6.332;2023-09-19T04:30:59;4.93;;;1.30;;
75639;SDS011;64233;51.486;6.332;2023-09-19T04:33:25;4.32;;;1.05;;
75639;SDS011;64233;51.486;6.332;2023-09-19T04:35:52;7.50;;;1.15;;
75639;SDS011;64233;51.486;6.332;2023-09-19T04:38:18;6.63;;;1.13;;
75639;SDS011;64233;51.486;6.332;2023-09-19T04:40:44;5.78;;;1.08;;
75639;SDS011;64233;51.486;6.332;2023-09-19T04:43:10;8.80;;;2.40;;
75639;SDS011;64233;51.486;6.332;2023-09-19T04:45:35;5.45;;;1.17;;
75639;SDS011;64233;51.486;6.332;2023-09-19T04:48:00;4.72;;;1.52;;
75639;SDS011;64233;51.486;6.332;2023-09-19T04:50:25;3.38;;;1.55;;
75639;SDS011;64233;51.486;6.332;2023-09-19T04:52:53;7.00;;;1.38;;
75639;SDS011;64233;51.486;6.332;2023-09-19T04:55:18;5.63;;;2.10;;
75639;SDS011;64233;51.486;6.332;2023-09-19T04:57:44;3.78;;;1.55;;
75639;SDS011;64233;51.486;6.332;2023-09-19T05:00:14;3.15;;;1.55;;
75639;SDS011;64233;51.486;6.332;2023-09-19T05:02:41;7.63;;;1.58;;
75639;SDS011;64233;51.486;6.332;2023-09-19T05:05:08;5.43;;;1.65;;
75639;SDS011;64233;51.486;6.332;2023-09-19T05:07:35;7.20;;;1.42;;
75639;SDS011;64233;51.486;6.332;2023-09-19T05:10:01;9.40;;;1.52;;
75639;SDS011;64233;51.486;6.332;2023-09-19T05:12:30;8.40;;;1.73;;
75639;SDS011;64233;51.486;6.332;2023-09-19T05:14:56;7.38;;;1.25;;
75639;SDS011;64233;51.486;6.332;2023-09-19T05:17:21;9.45;;;2.15;;
75639;SDS011;64233;51.486;6.332;2023-09-19T05:19:46;4.50;;;1.80;;
75639;SDS011;64233;51.486;6.332;2023-09-19T05:22:11;5.95;;;1.55;;
75639;SDS011;64233;51.486;6.332;2023-09-19T05:24:37;5.50;;;2.10;;
75639;SDS011;64233;51.486;6.332;2023-09-19T05:27:04;9.55;;;2.78;;
75639;SDS011;64233;51.486;6.332;2023-09-19T05:29:29;8.90;;;2.53;;
75639;SDS011;64233;51.486;6.332;2023-09-19T05:31:55;8.33;;;2.03;;
75639;SDS011;64233;51.486;6.332;2023-09-19T05:34:20;5.47;;;1.55;;
75639;SDS011;64233;51.486;6.332;2023-09-19T05:36:45;5.25;;;1.70;;
75639;SDS011;64233;51.486;6.332;2023-09-19T05:39:10;11.10;;;2.03;;
75639;SDS011;64233;51.486;6.332;2023-09-19T05:41:37;9.48;;;2.15;;
75639;SDS011;64233;51.486;6.332;2023-09-19T05:44:05;10.40;;;1.60;;
75639;SDS011;64233;51.486;6.332;2023-09-19T05:46:31;2.85;;;1.58;;
75639;SDS011;64233;51.486;6.332;2023-09-19T05:48:57;9.57;;;1.63;;
75639;SDS011;64233;51.486;6.332;2023-09-19T05:51:22;5.38;;;1.58;;
75639;SDS011;64233;51.486;6.332;2023-09-19T05:53:48;7.03;;;1.85;;
75639;SDS011;64233;51.486;6.332;2023-09-19T05:56:13;7.30;;;2.00;;
75639;SDS011;64233;51.486;6.332;2023-09-19T05:58:40;1.75;;;1.10;;
75639;SDS011;64233;51.486;6.332;2023-09-19T06:01:07;10.07;;;1.33;;
75639;SDS011;64233;51.486;6.332;2023-09-19T06:03:34;6.75;;;1.10;;
75639;SDS011;64233;51.486;6.332;2023-09-19T06:06:00;7.60;;;1.40;;
75639;SDS011;64233;51.486;6.332;2023-09-19T06:08:26;5.68;;;1.40;;
75639;SDS011;64233;51.486;6.332;2023-09-19T06:10:51;6.05;;;1.15;;
75639;SDS011;64233;51.486;6.332;2023-09-19T06:13:17;6.60;;;1.75;;
75639;SDS011;64233;51.486;6.332;2023-09-19T06:15:43;5.03;;;1.15;;
75639;SDS011;64233;51.486;6.332;2023-09-19T06:18:10;8.32;;;1.80;;
75639;SDS011;64233;51.486;6.332;2023-09-19T06:20:38;5.55;;;1.83;;
75639;SDS011;64233;51.486;6.332;2023-09-19T06:23:09;7.00;;;1.60;;
75639;SDS011;64233;51.486;6.332;2023-09-19T06:25:34;12.10;;;1.75;;
75639;SDS011;64233;51.486;6.332;2023-09-19T06:28:00;3.75;;;1.13;;
75639;SDS011;64233;51.486;6.332;2023-09-19T06:30:29;8.27;;;1.40;;
75639;SDS011;64233;51.486;6.332;2023-09-19T06:32:56;7.40;;;1.73;;
75639;SDS011;64233;51.486;6.332;2023-09-19T06:35:23;5.60;;;1.73;;
75639;SDS011;64233;51.486;6.332;2023-09-19T06:37:48;6.90;;;1.60;;
75639;SDS011;64233;51.486;6.332;2023-09-19T06:40:14;10.45;;;1.23;;
75639;SDS011;64233;51.486;6.332;2023-09-19T06:42:43;5.57;;;2.00;;
75639;SDS011;64233;51.486;6.332;2023-09-19T06:45:10;6.22;;;1.40;;
75639;SDS011;64233;51.486;6.332;2023-09-19T06:47:42;3.70;;;2.05;;
75639;SDS011;64233;51.486;6.332;2023-09-19T06:50:08;5.90;;;1.58;;
75639;SDS011;64233;51.486;6.332;2023-09-19T06:52:38;8.82;;;1.30;;
75639;SDS011;64233;51.486;6.332;2023-09-19T06:55:04;11.13;;;1.50;;
75639;SDS011;64233;51.486;6.332;2023-09-19T06:57:31;7.05;;;1.42;;
75639;SDS011;64233;51.486;6.332;2023-09-19T06:59:56;7.55;;;1.48;;
75639;SDS011;64233;51.486;6.332;2023-09-19T07:02:21;5.13;;;1.35;;
75639;SDS011;64233;51.486;6.332;2023-09-19T07:04:47;7.90;;;1.60;;
75639;SDS011;64233;51.486;6.332;2023-09-19T07:07:12;3.05;;;1.42;;
75639;SDS011;64233;51.486;6.332;2023-09-19T07:09:38;5.13;;;1.30;;
75639;SDS011;64233;51.486;6.332;2023-09-19T07:12:04;6.28;;;1.48;;
75639;SDS011;64233;51.486;6.332;2023-09-19T07:14:29;8.10;;;1.98;;
75639;SDS011;64233;51.486;6.332;2023-09-19T07:16:55;5.57;;;1.13;;
75639;SDS011;64233;51.486;6.332;2023-09-19T07:19:20;8.50;;;1.42;;
75639;SDS011;64233;51.486;6.332;2023-09-19T07:21:46;5.97;;;1.17;;
75639;SDS011;64233;51.486;6.332;2023-09-19T07:24:12;4.97;;;0.88;;
75639;SDS011;64233;51.486;6.332;2023-09-19T07:26:38;8.88;;;1.83;;
75639;SDS011;64233;51.486;6.332;2023-09-19T07:29:04;6.80;;;1.10;;
75639;SDS011;64233;51.486;6.332;2023-09-19T07:31:32;8.23;;;2.03;;
75639;SDS011;64233;51.486;6.332;2023-09-19T07:33:58;6.15;;;1.30;;
75639;SDS011;64233;51.486;6.332;2023-09-19T07:36:23;5.95;;;1.35;;
75639;SDS011;64233;51.486;6.332;2023-09-19T07:38:49;6.70;;;1.45;;
75639;SDS011;64233;51.486;6.332;2023-09-19T07:41:15;7.30;;;1.00;;
75639;SDS011;64233;51.486;6.332;2023-09-19T07:43:40;11.27;;;1.50;;
75639;SDS011;64233;51.486;6.332;2023-09-19T07:46:06;6.85;;;1.40;;
75639;SDS011;64233;51.486;6.332;2023-09-19T07:48:35;5.50;;;1.30;;
75639;SDS011;64233;51.486;6.332;2023-09-19T07:51:04;5.88;;;1.30;;
75639;SDS011;64233;51.486;6.332;2023-09-19T07:53:31;9.13;;;1.60;;
75639;SDS011;64233;51.486;6.332;2023-09-19T07:56:06;7.53;;;1.40;;
75639;SDS011;64233;51.486;6.332;2023-09-19T07:58:33;8.32;;;1.10;;
75639;SDS011;64233;51.486;6.332;2023-09-19T08:01:03;10.98;;;1.70;;
75639;SDS011;64233;51.486;6.332;2023-09-19T08:03:32;6.03;;;1.70;;
75639;SDS011;64233;51.486;6.332;2023-09-19T08:05:59;5.75;;;1.40;;
75639;SDS011;64233;51.486;6.332;2023-09-19T08:08:24;4.55;;;1.75;;
75639;SDS011;64233;51.486;6.332;2023-09-19T08:10:54;3.25;;;1.10;;
75639;SDS011;64233;51.486;6.332;2023-09-19T08:13:21;8.73;;;1.23;;
75639;SDS011;64233;51.486;6.332;2023-09-19T08:15:47;8.40;;;1.42;;
75639;SDS011;64233;51.486;6.332;2023-09-19T08:18:13;4.03;;;1.20;;
75639;SDS011;64233;51.486;6.332;2023-09-19T08:20:42;6.00;;;1.67;;
75639;SDS011;64233;51.486;6.332;2023-09-19T08:23:08;9.30;;;1.52;;
75639;SDS011;64233;51.486;6.332;2023-09-19T08:25:33;7.45;;;1.17;;
75639;SDS011;64233;51.486;6.332;2023-09-19T08:27:59;7.07;;;1.45;;
75639;SDS011;64233;51.486;6.332;2023-09-19T08:30:28;4.97;;;1.35;;
75639;SDS011;64233;51.486;6.332;2023-09-19T08:33:01;3.35;;;0.98;;
75639;SDS011;64233;51.486;6.332;2023-09-19T08:35:29;6.90;;;1.70;;
75639;SDS011;64233;51.486;6.332;2023-09-19T08:37:55;5.35;;;1.48;;
75639;SDS011;64233;51.486;6.332;2023-09-19T08:40:20;8.88;;;1.48;;
75639;SDS011;64233;51.486;6.332;2023-09-19T08:42:47;5.43;;;1.25;;
75639;SDS011;64233;51.486;6.332;2023-09-19T08:45:15;4.22;;;0.90;;
75639;SDS011;64233;51.486;6.332;2023-09-19T08:47:55;9.95;;;1.92;;
75639;SDS011;64233;51.486;6.332;2023-09-19T08:50:28;4.10;;;1.00;;
75639;SDS011;64233;51.486;6.332;2023-09-19T08:52:55;4.53;;;1.17;;
75639;SDS011;64233;51.486;6.332;2023-09-19T08:55:28;5.97;;;1.77;;
75639;SDS011;64233;51.486;6.332;2023-09-19T08:57:58;6.40;;;1.42;;
75639;SDS011;64233;51.486;6.332;2023-09-19T09:00:26;6.75;;;1.48;;
75639;SDS011;64233;51.486;6.332;2023-09-19T09:02:52;5.82;;;1.38;;
75639;SDS011;64233;51.486;6.332;2023-09-19T09:05:20;9.63;;;2.38;;
75639;SDS011;64233;51.486;6.332;2023-09-19T09:07:47;5.70;;;1.38;;
75639;SDS011;64233;51.486;6.332;2023-09-19T09:10:16;4.43;;;1.02;;
75639;SDS011;64233;51.486;6.332;2023-09-19T09:12:42;3.42;;;1.40;;
75639;SDS011;64233;51.486;6.332;2023-09-19T09:15:09;4.50;;;1.05;;
75639;SDS011;64233;51.486;6.332;2023-09-19T09:17:36;4.75;;;1.10;;
75639;SDS011;64233;51.486;6.332;2023-09-19T09:20:02;9.98;;;2.38;;
75639;SDS011;64233;51.486;6.332;2023-09-19T09:22:30;5.97;;;1.15;;
75639;SDS011;64233;51.486;6.332;2023-09-19T09:24:57;2.63;;;1.10;;
75639;SDS011;64233;51.486;6.332;2023-09-19T09:27:30;8.57;;;1.38;;
75639;SDS011;64233;51.486;6.332;2023-09-19T09:29:56;6.28;;;1.10;;
75639;SDS011;64233;51.486;6.332;2023-09-19T09:34:57;8.43;;;1.08;;
75639;SDS011;64233;51.486;6.332;2023-09-19T09:37:24;6.47;;;1.13;;
75639;SDS011;64233;51.486;6.332;2023-09-19T09:40:01;8.40;;;1.45;;
75639;SDS011;64233;51.486;6.332;2023-09-19T09:42:39;4.82;;;1.23;;
75639;SDS011;64233;51.486;6.332;2023-09-19T09:48:02;10.53;;;1.57;;
75639;SDS011;64233;51.486;6.332;2023-09-19T09:50:39;2.95;;;0.70;;
75639;SDS011;64233;51.486;6.332;2023-09-19T09:55:57;7.97;;;1.45;;
75639;SDS011;64233;51.486;6.332;2023-09-19T09:58:24;3.97;;;1.13;;
75639;SDS011;64233;51.486;6.332;2023-09-19T10:00:54;5.05;;;1.60;;
75639;SDS011;64233;51.486;6.332;2023-09-19T10:03:40;6.35;;;2.00;;
75639;SDS011;64233;51.486;6.332;2023-09-19T10:06:12;2.72;;;1.10;;
75639;SDS011;64233;51.486;6.332;2023-09-19T10:14:08;18.13;;;1.95;;
75639;SDS011;64233;51.486;6.332;2023-09-19T10:16:37;7.63;;;2.28;;
75639;SDS011;64233;51.486;6.332;2023-09-19T10:19:06;11.15;;;2.53;;
75639;SDS011;64233;51.486;6.332;2023-09-19T10:21:33;8.93;;;1.40;;
75639;SDS011;64233;51.486;6.332;2023-09-19T10:24:01;7.97;;;1.38;;
75639;SDS011;64233;51.486;6.332;2023-09-19T10:26:29;4.43;;;1.27;;
75639;SDS011;64233;51.486;6.332;2023-09-19T10:28:56;6.65;;;1.38;;
75639;SDS011;64233;51.486;6.332;2023-09-19T10:31:22;11.80;;;1.60;;
75639;SDS011;64233;51.486;6.332;2023-09-19T10:33:50;12.63;;;1.63;;
75639;SDS011;64233;51.486;6.332;2023-09-19T10:36:18;4.22;;;1.58;;
75639;SDS011;64233;51.486;6.332;2023-09-19T10:38:45;5.53;;;1.40;;
75639;SDS011;64233;51.486;6.332;2023-09-19T10:41:12;7.18;;;1.98;;
75639;SDS011;64233;51.486;6.332;2023-09-19T10:43:41;8.38;;;1.50;;
75639;SDS011;64233;51.486;6.332;2023-09-19T10:46:10;7.55;;;1.40;;
75639;SDS011;64233;51.486;6.332;2023-09-19T10:48:37;5.28;;;1.35;;
75639;SDS011;64233;51.486;6.332;2023-09-19T10:51:06;5.15;;;1.10;;
75639;SDS011;64233;51.486;6.332;2023-09-19T10:53:44;11.07;;;1.80;;
75639;SDS011;64233;51.486;6.332;2023-09-19T10:56:18;5.13;;;1.13;;
75639;SDS011;64233;51.486;6.332;2023-09-19T10:58:48;11.95;;;1.80;;
75639;SDS011;64233;51.486;6.332;2023-09-19T11:01:14;4.18;;;1.20;;
75639;SDS011;64233;51.486;6.332;2023-09-19T11:03:41;5.45;;;1.50;;
75639;SDS011;64233;51.486;6.332;2023-09-19T11:06:16;3.78;;;1.20;;
75639;SDS011;64233;51.486;6.332;2023-09-19T11:08:56;3.90;;;0.93;;
75639;SDS011;64233;51.486;6.332;2023-09-19T11:11:55;7.03;;;1.15;;
75639;SDS011;64233;51.486;6.332;2023-09-19T11:30:49;5.32;;;1.02;;
75639;SDS011;64233;51.486;6.332;2023-09-19T11:33:19;3.58;;;1.55;;
75639;SDS011;64233;51.486;6.332;2023-09-19T11:43:45;6.97;;;2.25;;
75639;SDS011;64233;51.486;6.332;2023-09-19T11:46:11;7.22;;;1.17;;
75639;SDS011;64233;51.486;6.332;2023-09-19T11:48:38;2.45;;;0.70;;
75639;SDS011;64233;51.486;6.332;2023-09-19T11:51:12;6.65;;;1.48;;
75639;SDS011;64233;51.486;6.332;2023-09-19T11:53:52;4.35;;;1.33;;
75639;SDS011;64233;51.486;6.332;2023-09-19T11:56:19;5.90;;;1.30;;
75639;SDS011;64233;51.486;6.332;2023-09-19T11:58:46;4.53;;;1.20;;
75639;SDS011;64233;51.486;6.332;2023-09-19T12:01:15;2.90;;;1.17;;
75639;SDS011;64233;51.486;6.332;2023-09-19T12:03:47;6.18;;;1.42;;
75639;SDS011;64233;51.486;6.332;2023-09-19T12:06:18;8.02;;;0.95;;
75639;SDS011;64233;51.486;6.332;2023-09-19T12:08:46;4.68;;;1.10;;
75639;SDS011;64233;51.486;6.332;2023-09-19T12:11:13;4.30;;;1.20;;
75639;SDS011;64233;51.486;6.332;2023-09-19T12:13:46;6.32;;;1.20;;
75639;SDS011;64233;51.486;6.332;2023-09-19T12:18:43;7.88;;;1.10;;
75639;SDS011;64233;51.486;6.332;2023-09-19T12:26:44;4.40;;;0.93;;
75639;SDS011;64233;51.486;6.332;2023-09-19T12:29:16;6.07;;;1.38;;
75639;SDS011;64233;51.486;6.332;2023-09-19T12:31:54;1.85;;;0.90;;
75639;SDS011;64233;51.486;6.332;2023-09-19T12:34:23;5.68;;;0.98;;
75639;SDS011;64233;51.486;6.332;2023-09-19T12:39:44;8.73;;;1.63;;
75639;SDS011;64233;51.486;6.332;2023-09-19T12:42:21;5.35;;;0.80;;
75639;SDS011;64233;51.486;6.332;2023-09-19T12:44:48;7.13;;;1.33;;
75639;SDS011;64233;51.486;6.332;2023-09-19T12:47:21;2.38;;;0.75;;
75639;SDS011;64233;51.486;6.332;2023-09-19T12:52:48;3.17;;;0.80;;
75639;SDS011;64233;51.486;6.332;2023-09-19T13:00:34;2.58;;;0.60;;
75639;SDS011;64233;51.486;6.332;2023-09-19T13:03:17;1.67;;;0.70;;
75639;SDS011;64233;51.486;6.332;2023-09-19T13:05:59;4.97;;;0.68;;
75639;SDS011;64233;51.486;6.332;2023-09-19T13:08:30;3.05;;;0.65;;
75639;SDS011;64233;51.486;6.332;2023-09-19T13:19:45;1.20;;;0.65;;
75639;SDS011;64233;51.486;6.332;2023-09-19T13:25:05;5.68;;;0.80;;
75639;SDS011;64233;51.486;6.332;2023-09-19T13:27:32;2.08;;;0.75;;
75639;SDS011;64233;51.486;6.332;2023-09-19T13:29:58;4.80;;;1.20;;
75639;SDS011;64233;51.486;6.332;2023-09-19T13:32:23;4.28;;;0.68;;
75639;SDS011;64233;51.486;6.332;2023-09-19T13:34:49;4.45;;;0.70;;
75639;SDS011;64233;51.486;6.332;2023-09-19T13:37:16;4.95;;;0.98;;
75639;SDS011;64233;51.486;6.332;2023-09-19T13:39:43;1.73;;;0.52;;
75639;SDS011;64233;51.486;6.332;2023-09-19T13:42:12;2.55;;;0.52;;
75639;SDS011;64233;51.486;6.332;2023-09-19T13:44:38;1.67;;;0.50;;
75639;SDS011;64233;51.486;6.332;2023-09-19T13:47:03;1.77;;;0.50;;
75639;SDS011;64233;51.486;6.332;2023-09-19T13:49:34;3.58;;;0.57;;
75639;SDS011;64233;51.486;6.332;2023-09-19T13:52:00;1.45;;;0.50;;
75639;SDS011;64233;51.486;6.332;2023-09-19T13:54:26;5.18;;;0.68;;
75639;SDS011;64233;51.486;6.332;2023-09-19T13:56:51;2.27;;;0.70;;
75639;SDS011;64233;51.486;6.332;2023-09-19T13:59:17;3.00;;;0.40;;
75639;SDS011;64233;51.486;6.332;2023-09-19T14:01:42;1.47;;;0.57;;
75639;SDS011;64233;51.486;6.332;2023-09-19T14:04:07;5.78;;;0.70;;
75639;SDS011;64233;51.486;6.332;2023-09-19T14:06:32;1.98;;;0.50;;
75639;SDS011;64233;51.486;6.332;2023-09-19T14:08:58;3.35;;;0.73;;
75639;SDS011;64233;51.486;6.332;2023-09-19T14:11:23;2.75;;;0.60;;
75639;SDS011;64233;51.486;6.332;2023-09-19T14:13:48;2.60;;;0.97;;
75639;SDS011;64233;51.486;6.332;2023-09-19T14:16:15;1.75;;;0.52;;
75639;SDS011;64233;51.486;6.332;2023-09-19T14:18:42;1.73;;;0.47;;
75639;SDS011;64233;51.486;6.332;2023-09-19T14:21:10;2.92;;;0.45;;
75639;SDS011;64233;51.486;6.332;2023-09-19T14:23:36;2.88;;;0.60;;
75639;SDS011;64233;51.486;6.332;2023-09-19T14:26:04;2.15;;;0.40;;
75639;SDS011;64233;51.486;6.332;2023-09-19T14:28:33;0.80;;;0.60;;
75639;SDS011;64233;51.486;6.332;2023-09-19T14:31:07;4.82;;;0.68;;
75639;SDS011;64233;51.486;6.332;2023-09-19T14:33:33;1.30;;;0.50;;
75639;SDS011;64233;51.486;6.332;2023-09-19T14:36:02;1.52;;;0.47;;
75639;SDS011;64233;51.486;6.332;2023-09-19T14:38:28;2.78;;;0.85;;
75639;SDS011;64233;51.486;6.332;2023-09-19T14:41:03;0.90;;;0.50;;
75639;SDS011;64233;51.486;6.332;2023-09-19T14:43:30;1.48;;;0.50;;
75639;SDS011;64233;51.486;6.332;2023-09-19T14:45:57;4.38;;;0.50;;
75639;SDS011;64233;51.486;6.332;2023-09-19T14:48:23;2.15;;;0.60;;
75639;SDS011;64233;51.486;6.332;2023-09-19T14:50:51;3.30;;;0.60;;
75639;SDS011;64233;51.486;6.332;2023-09-19T14:53:17;1.95;;;0.40;;
75639;SDS011;64233;51.486;6.332;2023-09-19T14:55:43;0.57;;;0.40;;
75639;SDS011;64233;51.486;6.332;2023-09-19T14:58:10;2.28;;;0.65;;
75639;SDS011;64233;51.486;6.332;2023-09-19T15:00:36;1.17;;;0.70;;
75639;SDS011;64233;51.486;6.332;2023-09-19T15:03:01;1.25;;;0.50;;
75639;SDS011;64233;51.486;6.332;2023-09-19T15:05:27;2.40;;;0.65;;
75639;SDS011;64233;51.486;6.332;2023-09-19T15:07:54;2.10;;;1.02;;
75639;SDS011;64233;51.486;6.332;2023-09-19T15:10:20;3.92;;;1.00;;
75639;SDS011;64233;51.486;6.332;2023-09-19T15:12:47;1.45;;;0.40;;
75639;SDS011;64233;51.486;6.332;2023-09-19T15:15:13;5.43;;;0.60;;
75639;SDS011;64233;51.486;6.332;2023-09-19T15:17:38;3.75;;;0.70;;
75639;SDS011;64233;51.486;6.332;2023-09-19T15:20:04;2.20;;;0.45;;
75639;SDS011;64233;51.486;6.332;2023-09-19T15:22:31;2.22;;;0.70;;
75639;SDS011;64233;51.486;6.332;2023-09-19T15:25:01;0.30;;;0.30;;
75639;SDS011;64233;51.486;6.332;2023-09-19T15:27:27;4.97;;;0.80;;
75639;SDS011;64233;51.486;6.332;2023-09-19T15:29:55;3.53;;;0.68;;
75639;SDS011;64233;51.486;6.332;2023-09-19T15:32:23;2.35;;;0.43;;
75639;SDS011;64233;51.486;6.332;2023-09-19T15:34:48;2.17;;;0.50;;
75639;SDS011;64233;51.486;6.332;2023-09-19T15:37:14;3.73;;;0.50;;
75639;SDS011;64233;51.486;6.332;2023-09-19T15:39:39;6.85;;;0.50;;
75639;SDS011;64233;51.486;6.332;2023-09-19T15:42:04;2.63;;;0.73;;
75639;SDS011;64233;51.486;6.332;2023-09-19T15:44:30;1.30;;;0.50;;
75639;SDS011;64233;51.486;6.332;2023-09-19T15:46:55;0.32;;;0.30;;
75639;SDS011;64233;51.486;6.332;2023-09-19T15:49:22;2.15;;;1.00;;
75639;SDS011;64233;51.486;6.332;2023-09-19T15:51:48;3.55;;;0.45;;
75639;SDS011;64233;51.486;6.332;2023-09-19T15:54:14;1.25;;;0.30;;
75639;SDS011;64233;51.486;6.332;2023-09-19T15:56:40;1.65;;;0.50;;
75639;SDS011;64233;51.486;6.332;2023-09-19T15:59:07;1.17;;;0.60;;
75639;SDS011;64233;51.486;6.332;2023-09-19T16:01:33;5.18;;;0.70;;
75639;SDS011;64233;51.486;6.332;2023-09-19T16:03:58;5.82;;;0.80;;
75639;SDS011;64233;51.486;6.332;2023-09-19T16:06:25;2.80;;;0.70;;
75639;SDS011;64233;51.486;6.332;2023-09-19T16:08:55;4.07;;;0.40;;
75639;SDS011;64233;51.486;6.332;2023-09-19T16:11:23;4.13;;;0.63;;
75639;SDS011;64233;51.486;6.332;2023-09-19T16:13:49;1.27;;;0.50;;
75639;SDS011;64233;51.486;6.332;2023-09-19T16:16:16;2.22;;;0.82;;
75639;SDS011;64233;51.486;6.332;2023-09-19T16:18:54;2.55;;;0.55;;